sensor_id;sensor_type;location;lat;lon;timestamp;pressure;altitude;pressure_sealevel;temperature;humidity
57056;BME280;42945;51.718;5.324;2023-06-14T00:02:16;101080.75;;;16.14;75.67
57056;BME280;42945;51.718;5.324;2023-06-14T00:04:41;101012.75;;;16.17;74.13
57056;BME280;42945;51.718;5.324;2023-06-14T00:07:08;101168.94;;;16.73;75.15
57056;BME280;42945;51.718;5.324;2023-06-14T00:09:34;101060.88;;;15.94;75.16
57056;BME280;42945;51.718;5.324;2023-06-14T00:12:00;101038.50;;;15.95;74.27
57056;BME280;42945;51.718;5.324;2023-06-14T00:14:25;101062.81;;;15.92;77.50
57056;BME280;42945;51.718;5.324;2023-06-14T00:16:50;101207.88;;;16.78;78.24
57056;BME280;42945;51.718;5.324;2023-06-14T00:19:18;101208.09;;;16.63;80.05
57056;BME280;42945;51.718;5.324;2023-06-14T00:21:45;101143.56;;;16.55;80.28
57056;BME280;42945;51.718;5.324;2023-06-14T00:24:11;101096.13;;;15.99;80.58
57056;BME280;42945;51.718;5.324;2023-06-14T00:26:36;101200.28;;;16.49;79.73
57056;BME280;42945;51.718;5.324;2023-06-14T00:29:01;101197.13;;;16.55;81.75
57056;BME280;42945;51.718;5.324;2023-06-14T00:31:27;101200.41;;;16.47;81.94
57056;BME280;42945;51.718;5.324;2023-06-14T00:33:52;101201.28;;;16.48;83.66
57056;BME280;42945;51.718;5.324;2023-06-14T00:36:17;101146.34;;;16.31;86.86
57056;BME280;42945;51.718;5.324;2023-06-14T00:38:43;101170.06;;;16.36;85.84
57056;BME280;42945;51.718;5.324;2023-06-14T00:41:08;101035.34;;;15.66;87.02
57056;BME280;42945;51.718;5.324;2023-06-14T00:43:33;101163.25;;;16.31;88.46
57056;BME280;42945;51.718;5.324;2023-06-14T00:46:00;101167.72;;;15.84;87.34
57056;BME280;42945;51.718;5.324;2023-06-14T00:48:25;101046.09;;;15.42;90.14
57056;BME280;42945;51.718;5.324;2023-06-14T00:50:52;100960.25;;;14.74;91.83
57056;BME280;42945;51.718;5.324;2023-06-14T00:53:18;101175.44;;;16.00;93.35
57056;BME280;42945;51.718;5.324;2023-06-14T00:55:46;101218.50;;;16.08;93.30
57056;BME280;42945;51.718;5.324;2023-06-14T00:58:11;101045.34;;;15.15;94.61
57056;BME280;42945;51.718;5.324;2023-06-14T01:00:37;101190.84;;;15.97;98.74
57056;BME280;42945;51.718;5.324;2023-06-14T01:03:03;101232.81;;;15.96;97.62
57056;BME280;42945;51.718;5.324;2023-06-14T01:05:30;101215.28;;;15.92;99.77
57056;BME280;42945;51.718;5.324;2023-06-14T01:13:33;101014.72;;;15.08;98.69
57056;BME280;42945;51.718;5.324;2023-06-14T01:15:58;101203.34;;;15.72;100.00
57056;BME280;42945;51.718;5.324;2023-06-14T01:18:24;101188.16;;;15.72;100.00
57056;BME280;42945;51.718;5.324;2023-06-14T01:20:51;101185.81;;;15.68;98.94
57056;BME280;42945;51.718;5.324;2023-06-14T01:23:21;101076.84;;;14.86;100.00
57056;BME280;42945;51.718;5.324;2023-06-14T01:25:47;101176.47;;;15.49;100.00
57056;BME280;42945;51.718;5.324;2023-06-14T01:28:18;101149.75;;;15.49;100.00
57056;BME280;42945;51.718;5.324;2023-06-14T01:30:46;101185.47;;;15.48;100.00
57056;BME280;42945;51.718;5.324;2023-06-14T01:33:18;101077.44;;;15.03;100.00
57056;BME280;42945;51.718;5.324;2023-06-14T01:35:47;101183.75;;;15.47;100.00
57056;BME280;42945;51.718;5.324;2023-06-14T01:38:13;101190.69;;;15.50;100.00
57056;BME280;42945;51.718;5.324;2023-06-14T01:40:40;101181.75;;;15.38;44.73
57056;BME280;42945;51.718;5.324;2023-06-14T01:43:07;101216.28;;;15.41;100.00
57056;BME280;42945;51.718;5.324;2023-06-14T01:45:34;101225.47;;;15.37;100.00
57056;BME280;42945;51.718;5.324;2023-06-14T01:48:00;101217.97;;;15.55;100.00
57056;BME280;42945;51.718;5.324;2023-06-14T01:50:32;101103.72;;;15.09;100.00
57056;BME280;42945;51.718;5.324;2023-06-14T01:52:58;101182.19;;;15.32;100.00
57056;BME280;42945;51.718;5.324;2023-06-14T01:55:23;101151.81;;;15.33;100.00
57056;BME280;42945;51.718;5.324;2023-06-14T01:57:50;101148.19;;;15.34;100.00
57056;BME280;42945;51.718;5.324;2023-06-14T02:00:16;101182.50;;;15.27;100.00
57056;BME280;42945;51.718;5.324;2023-06-14T02:02:43;101101.75;;;14.61;100.00
57056;BME280;42945;51.718;5.324;2023-06-14T02:05:08;101164.38;;;15.20;100.00
57056;BME280;42945;51.718;5.324;2023-06-14T02:07:34;101149.75;;;15.12;100.00
57056;BME280;42945;51.718;5.324;2023-06-14T02:09:59;101209.28;;;15.14;100.00
57056;BME280;42945;51.718;5.324;2023-06-14T02:12:24;101199.22;;;15.18;100.00
57056;BME280;42945;51.718;5.324;2023-06-14T02:14:50;101159.47;;;15.13;100.00
57056;BME280;42945;51.718;5.324;2023-06-14T02:17:15;101185.34;;;15.13;100.00
57056;BME280;42945;51.718;5.324;2023-06-14T02:19:41;101189.84;;;15.12;100.00
57056;BME280;42945;51.718;5.324;2023-06-14T02:22:07;101147.94;;;15.00;100.00
57056;BME280;42945;51.718;5.324;2023-06-14T02:24:32;101182.81;;;14.99;100.00
57056;BME280;42945;51.718;5.324;2023-06-14T02:26:58;101200.31;;;15.03;100.00
57056;BME280;42945;51.718;5.324;2023-06-14T02:29:23;101084.44;;;14.15;100.00
57056;BME280;42945;51.718;5.324;2023-06-14T02:31:48;101190.06;;;14.84;100.00
57056;BME280;42945;51.718;5.324;2023-06-14T02:34:14;101218.34;;;14.86;100.00
57056;BME280;42945;51.718;5.324;2023-06-14T02:36:42;101197.84;;;14.61;100.00
57056;BME280;42945;51.718;5.324;2023-06-14T02:39:11;101243.47;;;14.84;100.00
57056;BME280;42945;51.718;5.324;2023-06-14T02:41:36;101133.47;;;14.66;100.00
57056;BME280;42945;51.718;5.324;2023-06-14T02:44:02;101224.47;;;14.75;100.00
57056;BME280;42945;51.718;5.324;2023-06-14T02:46:27;101092.63;;;13.99;100.00
57056;BME280;42945;51.718;5.324;2023-06-14T02:48:52;101177.88;;;14.54;100.00
57056;BME280;42945;51.718;5.324;2023-06-14T02:51:17;101208.44;;;14.63;100.00
57056;BME280;42945;51.718;5.324;2023-06-14T02:53:43;101195.19;;;14.61;100.00
57056;BME280;42945;51.718;5.324;2023-06-14T02:56:09;101193.63;;;14.44;100.00
57056;BME280;42945;51.718;5.324;2023-06-14T02:58:36;101190.66;;;14.49;100.00
57056;BME280;42945;51.718;5.324;2023-06-14T03:01:01;101063.72;;;13.81;100.00
57056;BME280;42945;51.718;5.324;2023-06-14T03:03:29;101096.88;;;13.76;100.00
57056;BME280;42945;51.718;5.324;2023-06-14T03:05:54;101117.22;;;13.77;100.00
57056;BME280;42945;51.718;5.324;2023-06-14T03:08:20;101223.84;;;14.45;100.00
57056;BME280;42945;51.718;5.324;2023-06-14T03:10:46;101148.91;;;13.82;100.00
57056;BME280;42945;51.718;5.324;2023-06-14T03:13:15;101224.81;;;14.44;100.00
57056;BME280;42945;51.718;5.324;2023-06-14T03:15:47;101220.50;;;14.28;100.00
57056;BME280;42945;51.718;5.324;2023-06-14T03:18:14;101211.22;;;14.21;100.00
57056;BME280;42945;51.718;5.324;2023-06-14T03:20:41;101098.28;;;13.55;100.00
57056;BME280;42945;51.718;5.324;2023-06-14T03:23:07;101215.03;;;14.17;100.00
57056;BME280;42945;51.718;5.324;2023-06-14T03:25:33;101233.06;;;14.13;100.00
57056;BME280;42945;51.718;5.324;2023-06-14T03:28:00;101089.44;;;13.54;100.00
57056;BME280;42945;51.718;5.324;2023-06-14T03:30:26;101235.41;;;14.18;100.00
57056;BME280;42945;51.718;5.324;2023-06-14T03:32:51;101221.91;;;14.21;100.00
57056;BME280;42945;51.718;5.324;2023-06-14T03:35:21;101210.41;;;14.06;100.00
57056;BME280;42945;51.718;5.324;2023-06-14T03:37:46;101086.22;;;13.49;100.00
57056;BME280;42945;51.718;5.324;2023-06-14T03:40:13;101096.34;;;13.44;100.00
57056;BME280;42945;51.718;5.324;2023-06-14T03:42:39;101225.75;;;14.03;100.00
57056;BME280;42945;51.718;5.324;2023-06-14T03:45:05;101094.59;;;13.43;100.00
57056;BME280;42945;51.718;5.324;2023-06-14T03:47:31;101244.28;;;14.18;100.00
57056;BME280;42945;51.718;5.324;2023-06-14T03:49:57;101244.38;;;14.17;100.00
57056;BME280;42945;51.718;5.324;2023-06-14T03:52:22;101205.97;;;14.20;100.00
57056;BME280;42945;51.718;5.324;2023-06-14T03:54:48;101238.00;;;14.20;100.00
57056;BME280;42945;51.718;5.324;2023-06-14T03:57:14;101212.31;;;14.31;100.00
57056;BME280;42945;51.718;5.324;2023-06-14T03:59:39;101228.50;;;14.28;100.00
57056;BME280;42945;51.718;5.324;2023-06-14T04:02:06;101240.34;;;14.24;100.00
57056;BME280;42945;51.718;5.324;2023-06-14T04:04:32;101125.72;;;13.70;100.00
57056;BME280;42945;51.718;5.324;2023-06-14T04:06:58;101245.22;;;14.45;100.00
57056;BME280;42945;51.718;5.324;2023-06-14T04:09:24;101162.69;;;13.89;100.00
57056;BME280;42945;51.718;5.324;2023-06-14T04:11:51;101035.03;;;13.17;100.00
57056;BME280;42945;51.718;5.324;2023-06-14T04:14:18;101127.81;;;13.92;100.00
57056;BME280;42945;51.718;5.324;2023-06-14T04:16:45;101268.34;;;14.71;100.00
57056;BME280;42945;51.718;5.324;2023-06-14T04:19:10;101247.94;;;14.70;100.00
57056;BME280;42945;51.718;5.324;2023-06-14T04:21:36;101273.34;;;14.63;100.00
57056;BME280;42945;51.718;5.324;2023-06-14T04:24:01;101279.78;;;14.86;100.00
57056;BME280;42945;51.718;5.324;2023-06-14T04:26:27;101262.03;;;14.72;100.00
57056;BME280;42945;51.718;5.324;2023-06-14T04:28:58;101283.22;;;15.01;100.00
57056;BME280;42945;51.718;5.324;2023-06-14T04:31:28;101159.00;;;14.17;100.00
57056;BME280;42945;51.718;5.324;2023-06-14T04:33:55;101217.94;;;14.92;100.00
57056;BME280;42945;51.718;5.324;2023-06-14T04:36:20;101267.81;;;14.92;100.00
57056;BME280;42945;51.718;5.324;2023-06-14T04:38:46;101149.66;;;14.37;100.00
57056;BME280;42945;51.718;5.324;2023-06-14T04:41:11;101154.25;;;14.48;100.00
57056;BME280;42945;51.718;5.324;2023-06-14T04:43:37;101303.84;;;15.25;100.00
57056;BME280;42945;51.718;5.324;2023-06-14T04:46:04;101170.91;;;14.51;100.00
57056;BME280;42945;51.718;5.324;2023-06-14T04:48:30;101275.28;;;15.38;100.00
57056;BME280;42945;51.718;5.324;2023-06-14T04:50:56;101254.78;;;15.26;100.00
57056;BME280;42945;51.718;5.324;2023-06-14T04:53:22;101307.38;;;15.38;100.00
57056;BME280;42945;51.718;5.324;2023-06-14T04:55:48;101185.56;;;14.84;100.00
57056;BME280;42945;51.718;5.324;2023-06-14T04:58:14;101370.72;;;16.13;100.00
57056;BME280;42945;51.718;5.324;2023-06-14T05:00:39;101270.03;;;15.49;100.00
57056;BME280;42945;51.718;5.324;2023-06-14T05:03:04;101490.78;;;17.04;100.00
57056;BME280;42945;51.718;5.324;2023-06-14T05:05:31;101302.50;;;15.69;100.00
57056;BME280;42945;51.718;5.324;2023-06-14T05:07:57;101263.94;;;15.97;100.00
57056;BME280;42945;51.718;5.324;2023-06-14T05:10:22;100856.78;;;15.24;100.00
57056;BME280;42945;51.718;5.324;2023-06-14T05:12:47;101300.25;;;15.88;100.00
57056;BME280;42945;51.718;5.324;2023-06-14T05:15:14;101280.13;;;16.20;100.00
57056;BME280;42945;51.718;5.324;2023-06-14T05:17:40;101268.88;;;16.14;100.00
57056;BME280;42945;51.718;5.324;2023-06-14T05:20:06;101272.72;;;16.23;100.00
57056;BME280;42945;51.718;5.324;2023-06-14T05:22:31;101378.22;;;16.80;100.00
57056;BME280;42945;51.718;5.324;2023-06-14T05:24:57;101164.06;;;15.48;100.00
57056;BME280;42945;51.718;5.324;2023-06-14T05:27:22;101235.47;;;16.20;100.00
57056;BME280;42945;51.718;5.324;2023-06-14T05:29:47;101272.88;;;16.33;100.00
57056;BME280;42945;51.718;5.324;2023-06-14T05:32:13;101276.38;;;16.58;100.00
57056;BME280;42945;51.718;5.324;2023-06-14T05:34:42;101157.97;;;15.83;100.00
57056;BME280;42945;51.718;5.324;2023-06-14T05:37:08;101164.00;;;15.98;100.00
57056;BME280;42945;51.718;5.324;2023-06-14T05:39:33;101308.41;;;16.95;100.00
57056;BME280;42945;51.718;5.324;2023-06-14T05:41:58;101292.31;;;16.83;100.00
57056;BME280;42945;51.718;5.324;2023-06-14T05:44:24;101221.44;;;16.41;100.00
57056;BME280;42945;51.718;5.324;2023-06-14T05:46:49;101284.66;;;17.01;100.00
57056;BME280;42945;51.718;5.324;2023-06-14T05:49:15;101224.59;;;16.81;100.00
57056;BME280;42945;51.718;5.324;2023-06-14T05:51:40;101287.13;;;17.16;100.00
57056;BME280;42945;51.718;5.324;2023-06-14T05:54:05;101319.94;;;17.42;100.00
57056;BME280;42945;51.718;5.324;2023-06-14T05:56:30;101285.31;;;17.61;100.00
57056;BME280;42945;51.718;5.324;2023-06-14T05:58:56;101323.34;;;17.66;100.00
57056;BME280;42945;51.718;5.324;2023-06-14T06:01:21;101317.59;;;17.82;100.00
57056;BME280;42945;51.718;5.324;2023-06-14T06:03:47;101305.78;;;17.85;95.56
57056;BME280;42945;51.718;5.324;2023-06-14T06:06:13;101317.25;;;17.87;92.53
57056;BME280;42945;51.718;5.324;2023-06-14T06:08:38;101310.84;;;18.10;90.13
57056;BME280;42945;51.718;5.324;2023-06-14T06:11:04;101181.13;;;17.34;84.63
57056;BME280;42945;51.718;5.324;2023-06-14T06:13:29;101228.38;;;17.46;83.42
57056;BME280;42945;51.718;5.324;2023-06-14T06:15:54;101320.56;;;18.34;84.20
57056;BME280;42945;51.718;5.324;2023-06-14T06:18:21;101320.47;;;18.24;81.57
57056;BME280;42945;51.718;5.324;2023-06-14T06:20:46;101323.16;;;18.57;79.79
57056;BME280;42945;51.718;5.324;2023-06-14T06:23:12;101315.63;;;18.83;80.71
57056;BME280;42945;51.718;5.324;2023-06-14T06:25:37;101352.19;;;18.63;79.06
57056;BME280;42945;51.718;5.324;2023-06-14T06:28:03;101209.75;;;18.00;78.82
57056;BME280;42945;51.718;5.324;2023-06-14T06:30:28;101195.31;;;18.12;80.04
57056;BME280;42945;51.718;5.324;2023-06-14T06:32:53;101299.22;;;18.86;77.08
57056;BME280;42945;51.718;5.324;2023-06-14T06:35:20;101340.66;;;18.72;75.89
57056;BME280;42945;51.718;5.324;2023-06-14T06:37:46;101318.38;;;18.93;76.70
57056;BME280;42945;51.718;5.324;2023-06-14T06:40:11;101272.47;;;19.05;78.14
57056;BME280;42945;51.718;5.324;2023-06-14T06:42:37;101298.22;;;19.29;78.50
57056;BME280;42945;51.718;5.324;2023-06-14T06:45:03;101371.34;;;19.23;77.57
57056;BME280;42945;51.718;5.324;2023-06-14T06:47:28;101304.41;;;19.51;76.76
57056;BME280;42945;51.718;5.324;2023-06-14T06:49:54;101366.44;;;19.59;77.26
57056;BME280;42945;51.718;5.324;2023-06-14T06:52:19;101372.44;;;19.93;76.18
57056;BME280;42945;51.718;5.324;2023-06-14T06:54:44;101203.66;;;18.93;76.52
57056;BME280;42945;51.718;5.324;2023-06-14T06:57:10;101345.19;;;19.86;73.81
57056;BME280;42945;51.718;5.324;2023-06-14T06:59:36;101340.91;;;19.74;67.31
57056;BME280;42945;51.718;5.324;2023-06-14T07:02:01;101354.41;;;19.84;67.44
57056;BME280;42945;51.718;5.324;2023-06-14T07:04:26;101321.19;;;20.14;68.13
57056;BME280;42945;51.718;5.324;2023-06-14T07:06:52;101362.19;;;20.47;68.14
57056;BME280;42945;51.718;5.324;2023-06-14T07:09:17;101222.53;;;19.84;68.09
57056;BME280;42945;51.718;5.324;2023-06-14T07:11:46;101363.31;;;20.35;66.11
57056;BME280;42945;51.718;5.324;2023-06-14T07:14:11;101332.00;;;20.43;67.25
57056;BME280;42945;51.718;5.324;2023-06-14T07:16:39;101361.91;;;20.50;65.47
57056;BME280;42945;51.718;5.324;2023-06-14T07:19:04;101379.28;;;20.67;66.52
57056;BME280;42945;51.718;5.324;2023-06-14T07:21:30;101410.19;;;20.63;63.87
57056;BME280;42945;51.718;5.324;2023-06-14T07:23:55;101303.09;;;20.65;65.86
57056;BME280;42945;51.718;5.324;2023-06-14T07:26:22;101283.72;;;21.09;63.52
57056;BME280;42945;51.718;5.324;2023-06-14T07:28:48;101287.16;;;20.91;60.50
57056;BME280;42945;51.718;5.324;2023-06-14T07:31:15;101416.56;;;21.20;60.66
57056;BME280;42945;51.718;5.324;2023-06-14T07:33:41;101370.66;;;21.50;64.32
57056;BME280;42945;51.718;5.324;2023-06-14T07:36:07;101379.34;;;21.43;61.82
57056;BME280;42945;51.718;5.324;2023-06-14T07:38:33;101388.72;;;21.49;60.89
57056;BME280;42945;51.718;5.324;2023-06-14T07:40:58;101377.34;;;21.46;60.55
57056;BME280;42945;51.718;5.324;2023-06-14T07:43:23;101328.59;;;21.10;59.13
57056;BME280;42945;51.718;5.324;2023-06-14T07:45:48;101360.88;;;21.39;57.79
57056;BME280;42945;51.718;5.324;2023-06-14T07:48:14;101370.28;;;21.45;56.78
57056;BME280;42945;51.718;5.324;2023-06-14T07:50:39;101373.78;;;21.55;56.13
57056;BME280;42945;51.718;5.324;2023-06-14T07:53:05;101368.94;;;21.58;57.81
57056;BME280;42945;51.718;5.324;2023-06-14T07:55:30;101364.28;;;21.41;56.28
57056;BME280;42945;51.718;5.324;2023-06-14T07:57:58;101303.59;;;21.08;56.83
57056;BME280;42945;51.718;5.324;2023-06-14T08:00:23;101298.47;;;21.14;56.86
57056;BME280;42945;51.718;5.324;2023-06-14T08:02:48;101414.13;;;21.94;57.63
57056;BME280;42945;51.718;5.324;2023-06-14T08:05:14;101388.41;;;21.90;56.46
57056;BME280;42945;51.718;5.324;2023-06-14T08:07:39;101429.47;;;21.93;55.08
57056;BME280;42945;51.718;5.324;2023-06-14T08:10:06;101265.41;;;21.50;53.32
57056;BME280;42945;51.718;5.324;2023-06-14T08:12:32;101433.13;;;22.02;53.75
57056;BME280;42945;51.718;5.324;2023-06-14T08:14:58;101388.81;;;22.22;54.71
57056;BME280;42945;51.718;5.324;2023-06-14T08:17:23;101368.66;;;22.63;55.96
57056;BME280;42945;51.718;5.324;2023-06-14T08:19:50;101268.84;;;22.15;55.38
57056;BME280;42945;51.718;5.324;2023-06-14T08:22:15;101429.66;;;22.47;52.56
57056;BME280;42945;51.718;5.324;2023-06-14T08:24:43;101324.25;;;22.47;53.24
57056;BME280;42945;51.718;5.324;2023-06-14T08:27:09;101386.50;;;22.73;52.81
57056;BME280;42945;51.718;5.324;2023-06-14T08:29:34;101400.50;;;22.51;52.70
57056;BME280;42945;51.718;5.324;2023-06-14T08:32:00;101281.00;;;22.91;51.43
57056;BME280;42945;51.718;5.324;2023-06-14T08:34:25;101373.97;;;22.90;50.77
57056;BME280;42945;51.718;5.324;2023-06-14T08:36:51;101385.72;;;22.81;50.68
57056;BME280;42945;51.718;5.324;2023-06-14T08:39:16;101137.22;;;21.81;51.23
57056;BME280;42945;51.718;5.324;2023-06-14T08:41:43;101663.47;;;23.08;49.90
57056;BME280;42945;51.718;5.324;2023-06-14T08:44:11;101337.59;;;23.03;49.94
57056;BME280;42945;51.718;5.324;2023-06-14T08:46:36;101365.16;;;23.58;51.65
57056;BME280;42945;51.718;5.324;2023-06-14T08:49:03;101249.13;;;22.51;49.42
57056;BME280;42945;51.718;5.324;2023-06-14T08:51:31;101276.91;;;22.87;49.96
57056;BME280;42945;51.718;5.324;2023-06-14T08:54:01;101364.00;;;22.91;47.33
57056;BME280;42945;51.718;5.324;2023-06-14T08:56:29;101410.22;;;22.97;48.94
57056;BME280;42945;51.718;5.324;2023-06-14T08:58:57;101385.50;;;23.63;48.61
57056;BME280;42945;51.718;5.324;2023-06-14T09:01:23;101394.53;;;23.19;47.75
57056;BME280;42945;51.718;5.324;2023-06-14T09:03:49;101374.13;;;23.59;47.72
57056;BME280;42945;51.718;5.324;2023-06-14T09:06:15;101344.91;;;23.71;46.54
57056;BME280;42945;51.718;5.324;2023-06-14T09:08:46;101269.41;;;23.25;46.17
57056;BME280;42945;51.718;5.324;2023-06-14T09:11:12;101321.53;;;23.62;47.00
57056;BME280;42945;51.718;5.324;2023-06-14T09:13:38;101405.03;;;23.22;44.84
57056;BME280;42945;51.718;5.324;2023-06-14T09:16:05;101418.06;;;23.45;44.83
57056;BME280;42945;51.718;5.324;2023-06-14T09:18:45;101357.81;;;23.43;45.25
57056;BME280;42945;51.718;5.324;2023-06-14T09:21:14;101321.22;;;23.73;45.74
57056;BME280;42945;51.718;5.324;2023-06-14T09:23:44;101346.91;;;23.87;44.32
57056;BME280;42945;51.718;5.324;2023-06-14T09:26:14;101343.22;;;24.04;43.48
57056;BME280;42945;51.718;5.324;2023-06-14T09:28:47;101424.44;;;24.38;41.77
57056;BME280;42945;51.718;5.324;2023-06-14T09:31:14;101368.38;;;23.88;41.91
57056;BME280;42945;51.718;5.324;2023-06-14T09:33:50;101304.31;;;23.36;43.23
57056;BME280;42945;51.718;5.324;2023-06-14T09:36:23;101369.06;;;23.56;41.47
57056;BME280;42945;51.718;5.324;2023-06-14T09:38:55;101362.88;;;24.06;41.80
57056;BME280;42945;51.718;5.324;2023-06-14T09:41:30;101381.59;;;23.31;41.39
57056;BME280;42945;51.718;5.324;2023-06-14T09:43:57;101287.91;;;22.86;40.15
57056;BME280;42945;51.718;5.324;2023-06-14T09:46:26;101402.44;;;23.91;41.45
57056;BME280;42945;51.718;5.324;2023-06-14T09:48:52;101265.84;;;22.54;40.13
57056;BME280;42945;51.718;5.324;2023-06-14T09:51:18;101378.31;;;23.19;40.89
57056;BME280;42945;51.718;5.324;2023-06-14T09:53:46;101389.38;;;23.60;40.48
57056;BME280;42945;51.718;5.324;2023-06-14T09:56:37;101297.69;;;23.05;40.09
57056;BME280;42945;51.718;5.324;2023-06-14T09:59:04;101355.59;;;24.07;39.27
57056;BME280;42945;51.718;5.324;2023-06-14T10:01:31;101353.94;;;24.14;40.04
57056;BME280;42945;51.718;5.324;2023-06-14T10:04:15;101398.75;;;23.74;38.26
57056;BME280;42945;51.718;5.324;2023-06-14T10:06:45;101342.16;;;23.89;38.92
57056;BME280;42945;51.718;5.324;2023-06-14T10:09:12;101379.03;;;24.41;39.33
57056;BME280;42945;51.718;5.324;2023-06-14T10:11:38;101248.88;;;23.83;41.14
57056;BME280;42945;51.718;5.324;2023-06-14T10:14:10;101408.69;;;24.34;39.31
57056;BME280;42945;51.718;5.324;2023-06-14T10:17:09;101384.22;;;24.09;41.66
57056;BME280;42945;51.718;5.324;2023-06-14T10:19:44;101338.94;;;23.93;39.18
57056;BME280;42945;51.718;5.324;2023-06-14T10:22:18;101494.31;;;25.04;40.00
57056;BME280;42945;51.718;5.324;2023-06-14T10:24:45;101331.44;;;24.38;41.88
57056;BME280;42945;51.718;5.324;2023-06-14T10:27:14;101298.38;;;23.67;38.64
57056;BME280;42945;51.718;5.324;2023-06-14T10:30:07;101291.56;;;23.97;38.82
57056;BME280;42945;51.718;5.324;2023-06-14T10:32:32;101257.66;;;23.85;39.47
57056;BME280;42945;51.718;5.324;2023-06-14T10:35:05;101419.28;;;24.62;39.59
57056;BME280;42945;51.718;5.324;2023-06-14T10:37:32;101396.13;;;24.84;39.82
57056;BME280;42945;51.718;5.324;2023-06-14T10:39:58;101343.31;;;24.37;38.16
57056;BME280;42945;51.718;5.324;2023-06-14T10:42:36;101349.13;;;24.59;39.09
57056;BME280;42945;51.718;5.324;2023-06-14T10:45:01;101401.66;;;24.58;39.59
57056;BME280;42945;51.718;5.324;2023-06-14T10:47:34;101274.75;;;23.86;40.07
57056;BME280;42945;51.718;5.324;2023-06-14T10:52:33;101374.22;;;24.77;39.85
57056;BME280;42945;51.718;5.324;2023-06-14T10:55:07;101374.75;;;24.97;40.79
57056;BME280;42945;51.718;5.324;2023-06-14T10:57:38;101386.06;;;24.68;38.88
57056;BME280;42945;51.718;5.324;2023-06-14T11:00:05;101323.31;;;24.38;38.03
57056;BME280;42945;51.718;5.324;2023-06-14T11:03:31;101369.13;;;24.58;39.24
57056;BME280;42945;51.718;5.324;2023-06-14T11:06:12;101380.63;;;24.51;39.40
57056;BME280;42945;51.718;5.324;2023-06-14T11:08:50;101281.91;;;23.61;39.31
57056;BME280;42945;51.718;5.324;2023-06-14T11:11:22;101378.63;;;24.86;40.87
57056;BME280;42945;51.718;5.324;2023-06-14T11:13:48;101411.19;;;24.86;39.47
57056;BME280;42945;51.718;5.324;2023-06-14T11:16:17;101368.53;;;24.29;40.75
57056;BME280;42945;51.718;5.324;2023-06-14T11:18:46;101387.78;;;24.69;40.83
57056;BME280;42945;51.718;5.324;2023-06-14T11:21:16;101307.28;;;23.94;39.75
57056;BME280;42945;51.718;5.324;2023-06-14T11:23:49;101352.81;;;24.41;40.49
57056;BME280;42945;51.718;5.324;2023-06-14T11:26:14;101379.31;;;25.21;41.81
57056;BME280;42945;51.718;5.324;2023-06-14T11:28:40;101797.53;;;25.54;40.71
57056;BME280;42945;51.718;5.324;2023-06-14T11:31:07;101358.44;;;25.30;39.94
57056;BME280;42945;51.718;5.324;2023-06-14T11:33:32;101365.22;;;25.42;39.24
57056;BME280;42945;51.718;5.324;2023-06-14T11:35:58;101724.13;;;25.38;38.53
57056;BME280;42945;51.718;5.324;2023-06-14T11:38:25;101245.03;;;24.27;39.43
57056;BME280;42945;51.718;5.324;2023-06-14T11:40:50;101244.53;;;24.48;41.50
57056;BME280;42945;51.718;5.324;2023-06-14T11:43:15;101254.88;;;24.20;39.92
57056;BME280;42945;51.718;5.324;2023-06-14T11:45:42;101317.88;;;24.22;40.02
57056;BME280;42945;51.718;5.324;2023-06-14T11:48:07;101386.25;;;24.91;40.69
57056;BME280;42945;51.718;5.324;2023-06-14T11:50:37;101144.81;;;23.51;40.55
57056;BME280;42945;51.718;5.324;2023-06-14T11:53:03;101377.78;;;24.77;41.74
57056;BME280;42945;51.718;5.324;2023-06-14T11:55:35;101387.22;;;24.49;40.40
57056;BME280;42945;51.718;5.324;2023-06-14T11:58:01;101358.91;;;24.35;39.67
57056;BME280;42945;51.718;5.324;2023-06-14T12:00:26;101256.59;;;24.53;40.29
57056;BME280;42945;51.718;5.324;2023-06-14T12:02:53;101387.94;;;25.41;41.32
57056;BME280;42945;51.718;5.324;2023-06-14T12:05:21;101339.31;;;24.82;40.31
57056;BME280;42945;51.718;5.324;2023-06-14T12:07:47;101336.41;;;25.17;40.77
57056;BME280;42945;51.718;5.324;2023-06-14T12:10:13;101360.00;;;25.24;40.25
57056;BME280;42945;51.718;5.324;2023-06-14T12:12:40;101393.19;;;25.18;39.79
57056;BME280;42945;51.718;5.324;2023-06-14T12:15:07;101371.88;;;25.23;39.38
57056;BME280;42945;51.718;5.324;2023-06-14T12:17:37;101237.59;;;24.53;39.84
57056;BME280;42945;51.718;5.324;2023-06-14T12:20:12;101348.78;;;25.27;38.15
57056;BME280;42945;51.718;5.324;2023-06-14T12:22:52;101357.28;;;25.00;38.17
57056;BME280;42945;51.718;5.324;2023-06-14T12:25:33;101378.78;;;25.42;39.17
57056;BME280;42945;51.718;5.324;2023-06-14T12:28:03;101239.09;;;24.48;38.22
57056;BME280;42945;51.718;5.324;2023-06-14T12:30:29;101359.09;;;25.48;38.80
57056;BME280;42945;51.718;5.324;2023-06-14T12:32:54;101258.09;;;24.81;39.28
57056;BME280;42945;51.718;5.324;2023-06-14T12:35:21;101403.72;;;25.38;38.35
57056;BME280;42945;51.718;5.324;2023-06-14T12:37:46;101377.06;;;25.58;38.59
57056;BME280;42945;51.718;5.324;2023-06-14T12:40:12;101377.38;;;25.71;39.87
57056;BME280;42945;51.718;5.324;2023-06-14T12:42:38;101354.97;;;26.08;40.09
57056;BME280;42945;51.718;5.324;2023-06-14T12:45:04;101361.16;;;25.94;38.24
57056;BME280;42945;51.718;5.324;2023-06-14T12:47:29;101310.00;;;25.58;38.46
57056;BME280;42945;51.718;5.324;2023-06-14T12:49:55;101354.44;;;26.13;37.68
57056;BME280;42945;51.718;5.324;2023-06-14T12:52:20;101367.63;;;25.85;39.33
57056;BME280;42945;51.718;5.324;2023-06-14T12:54:45;101222.19;;;25.18;38.00